createdAt,value
2022-09-30T00:01:50.697Z,11.62
2022-09-30T00:04:20.765Z,11.60
2022-09-30T00:06:48.120Z,11.60
2022-09-30T00:09:15.236Z,11.58
2022-09-30T00:11:42.855Z,11.57
2022-09-30T00:14:16.067Z,11.55
2022-09-30T00:16:43.166Z,11.55
2022-09-30T00:19:10.116Z,11.55
2022-09-30T00:21:36.702Z,11.54
2022-09-30T00:24:04.116Z,11.55
2022-09-30T00:26:31.318Z,11.56
2022-09-30T00:28:59.439Z,11.55
2022-09-30T00:31:28.243Z,11.48
2022-09-30T00:33:58.054Z,11.57
2022-09-30T00:36:24.598Z,11.57
2022-09-30T00:38:51.115Z,11.57
2022-09-30T00:41:17.629Z,11.58
2022-09-30T00:43:46.960Z,11.58
2022-09-30T00:46:31.492Z,11.59
2022-09-30T00:49:02.825Z,11.63
2022-09-30T00:51:36.603Z,11.64
2022-09-30T00:54:09.694Z,11.65
2022-09-30T00:56:41.104Z,11.65
2022-09-30T00:59:13.727Z,11.66
2022-09-30T01:01:41.843Z,11.66
2022-09-30T01:04:22.531Z,11.58
2022-09-30T01:06:49.888Z,11.65
2022-09-30T01:09:17.705Z,11.65
2022-09-30T01:11:44.399Z,11.65
2022-09-30T01:14:15.269Z,11.64
2022-09-30T01:17:12.353Z,11.64
2022-09-30T01:19:59.795Z,11.64
2022-09-30T01:23:10.408Z,11.62
2022-09-30T01:26:14.128Z,11.65
2022-09-30T01:29:07.987Z,11.68
2022-09-30T01:31:53.705Z,11.69
2022-09-30T01:34:37.684Z,11.69
2022-09-30T01:37:15.237Z,11.68
2022-09-30T01:40:07.368Z,11.67
2022-09-30T01:43:27.917Z,11.69
2022-09-30T01:46:01.207Z,11.68
2022-09-30T01:48:40.541Z,11.68
2022-09-30T01:51:16.871Z,11.68
2022-09-30T01:54:12.688Z,11.68
2022-09-30T01:56:43.938Z,11.68
2022-09-30T01:59:29.343Z,11.68
2022-09-30T02:02:12.873Z,11.67
2022-09-30T02:04:45.486Z,11.68
2022-09-30T02:07:18.740Z,11.67
2022-09-30T02:09:51.802Z,11.67
2022-09-30T02:12:21.334Z,11.67
2022-09-30T02:14:55.524Z,11.67
2022-09-30T02:17:28.708Z,11.67
2022-09-30T02:20:26.616Z,11.65
2022-09-30T02:23:10.302Z,11.65
2022-09-30T02:25:41.976Z,11.64
2022-09-30T02:28:14.079Z,11.64
2022-09-30T02:30:45.819Z,11.63
2022-09-30T02:33:17.462Z,11.60
2022-09-30T02:36:00.871Z,11.57
2022-09-30T02:38:33.171Z,11.54
2022-09-30T02:41:13.652Z,11.51
2022-09-30T02:43:40.374Z,11.49
2022-09-30T02:46:13.155Z,11.46
2022-09-30T02:48:42.211Z,11.44
2022-09-30T02:51:19.973Z,11.40
2022-09-30T02:54:02.472Z,11.36
2022-09-30T02:57:04.544Z,11.33
2022-09-30T02:59:31.235Z,11.30
2022-09-30T03:01:58.117Z,11.28
2022-09-30T03:04:28.970Z,11.25
2022-09-30T03:06:55.777Z,11.23
2022-09-30T03:09:27.494Z,11.21
2022-09-30T03:12:06.264Z,11.19
2022-09-30T03:14:57.516Z,11.15
2022-09-30T03:17:50.403Z,11.14
2022-09-30T03:20:25.741Z,11.10
2022-09-30T03:23:10.318Z,11.08
2022-09-30T03:26:07.165Z,11.03
2022-09-30T03:28:44.974Z,11.00
2022-09-30T03:31:33.342Z,10.97
2022-09-30T03:34:05.920Z,10.93
2022-09-30T03:36:43.720Z,10.90
2022-09-30T03:39:22.136Z,10.87
2022-09-30T03:41:56.922Z,10.84
2022-09-30T03:44:37.189Z,10.82
2022-09-30T03:47:11.146Z,10.81
2022-09-30T03:49:47.818Z,10.81
2022-09-30T03:52:15.047Z,10.79
2022-09-30T03:54:49.100Z,10.80
2022-09-30T03:57:15.742Z,10.81
2022-09-30T03:59:42.330Z,10.82
2022-09-30T04:02:09.522Z,10.84
2022-09-30T04:04:36.549Z,10.84
2022-09-30T04:07:04.164Z,10.84
2022-09-30T04:09:30.686Z,10.87
2022-09-30T04:11:57.252Z,10.89
2022-09-30T04:14:23.723Z,10.91
2022-09-30T04:16:53.834Z,10.92
2022-09-30T04:19:20.753Z,10.94
2022-09-30T04:21:47.353Z,10.98
2022-09-30T04:24:16.109Z,10.99
2022-09-30T04:26:42.587Z,11.00
2022-09-30T04:29:09.090Z,11.01
2022-09-30T04:31:35.682Z,11.02
2022-09-30T04:34:02.319Z,11.04
2022-09-30T04:36:28.987Z,11.05
2022-09-30T04:38:55.523Z,11.07
2022-09-30T04:41:22.217Z,11.05
2022-09-30T04:43:49.079Z,11.05
2022-09-30T04:46:17.881Z,11.06
2022-09-30T04:48:45.206Z,11.07
2022-09-30T04:51:17.488Z,11.06
2022-09-30T04:53:44.176Z,11.07
2022-09-30T04:56:11.590Z,11.07
2022-09-30T04:58:38.495Z,11.05
2022-09-30T05:01:10.915Z,11.04
2022-09-30T05:03:37.782Z,11.03
2022-09-30T05:06:05.677Z,11.04
2022-09-30T05:08:32.935Z,11.03
2022-09-30T05:11:02.078Z,11.03
2022-09-30T05:13:34.174Z,11.05
2022-09-30T05:16:01.271Z,11.06
2022-09-30T05:18:28.149Z,11.08
2022-09-30T05:20:55.956Z,11.07
2022-09-30T05:23:23.441Z,11.07
2022-09-30T05:25:50.880Z,11.06
2022-09-30T05:28:17.961Z,11.06
2022-09-30T05:30:45.049Z,11.05
2022-09-30T05:33:13.465Z,11.05
2022-09-30T05:35:41.324Z,11.05
2022-09-30T05:38:08.898Z,11.05
2022-09-30T05:40:38.346Z,11.04
2022-09-30T05:43:05.637Z,11.07
2022-09-30T05:45:32.335Z,11.08
2022-09-30T05:47:59.099Z,11.10
2022-09-30T05:50:26.124Z,11.13
2022-09-30T05:52:53.095Z,11.16
2022-09-30T05:55:20.788Z,11.20
2022-09-30T05:57:51.564Z,11.24
2022-09-30T06:00:19.591Z,11.30
2022-09-30T06:02:46.380Z,11.36
2022-09-30T06:05:13.130Z,11.42
2022-09-30T06:07:40.025Z,11.50
2022-09-30T06:10:08.860Z,11.56
2022-09-30T06:12:35.613Z,11.65
2022-09-30T06:15:02.146Z,11.74
2022-09-30T06:17:28.656Z,11.82
2022-09-30T06:19:55.209Z,11.91
2022-09-30T06:22:21.743Z,12.00
2022-09-30T06:24:51.556Z,12.08
2022-09-30T06:27:21.469Z,12.17
2022-09-30T06:29:48.050Z,12.25
2022-09-30T06:32:14.613Z,12.35
2022-09-30T06:34:41.108Z,12.43
2022-09-30T06:37:07.682Z,12.52
2022-09-30T06:39:34.239Z,12.63
2022-09-30T06:42:00.731Z,12.72
2022-09-30T06:44:27.228Z,12.79
2022-09-30T06:46:54.507Z,12.86
2022-09-30T06:49:21.734Z,12.94
2022-09-30T06:51:48.205Z,13.00
2022-09-30T06:54:14.799Z,13.08
2022-09-30T06:56:41.275Z,13.15
2022-09-30T06:59:07.899Z,13.22
2022-09-30T07:01:34.381Z,13.30
2022-09-30T07:04:01.135Z,13.40
2022-09-30T07:06:27.611Z,13.47
2022-09-30T07:08:54.206Z,13.55
2022-09-30T07:11:20.938Z,13.67
2022-09-30T07:13:47.924Z,13.75
2022-09-30T07:16:16.324Z,13.83
2022-09-30T07:18:43.678Z,13.95
2022-09-30T07:21:11.164Z,14.04
2022-09-30T07:23:38.319Z,14.15
2022-09-30T07:26:05.163Z,14.27
2022-09-30T07:28:36.049Z,14.35
2022-09-30T07:31:31.232Z,14.44
2022-09-30T07:33:55.330Z,14.55
2022-09-30T07:36:26.176Z,14.64
2022-09-30T07:38:57.269Z,14.74
2022-09-30T07:41:27.041Z,14.80
2022-09-30T07:43:57.369Z,14.87
2022-09-30T07:46:29.940Z,14.93
2022-09-30T07:48:58.928Z,14.96
2022-09-30T07:51:28.664Z,15.03
2022-09-30T07:53:57.218Z,15.09
2022-09-30T07:56:25.005Z,15.17
2022-09-30T07:58:55.885Z,15.23
2022-09-30T08:01:23.831Z,15.32
2022-09-30T08:03:54.099Z,15.37
2022-09-30T08:06:22.520Z,15.50
2022-09-30T08:08:52.333Z,15.60
2022-09-30T08:11:19.266Z,15.65
2022-09-30T08:13:56.610Z,15.66
2022-09-30T08:16:24.455Z,15.64
2022-09-30T08:18:59.192Z,15.65
2022-09-30T08:21:26.362Z,15.67
2022-09-30T08:23:52.987Z,15.67
2022-09-30T08:26:19.644Z,15.70
2022-09-30T08:28:47.086Z,15.66
2022-09-30T08:31:16.397Z,15.60
2022-09-30T08:33:43.175Z,15.54
2022-09-30T08:36:12.832Z,15.46
2022-09-30T08:38:40.206Z,15.37
2022-09-30T08:41:26.933Z,15.28
2022-09-30T08:43:56.253Z,15.24
2022-09-30T08:46:41.963Z,15.18
2022-09-30T08:49:28.876Z,15.15
2022-09-30T08:51:58.888Z,15.16
2022-09-30T08:54:32.974Z,15.16
2022-09-30T08:57:03.739Z,15.19
2022-09-30T08:59:38.827Z,15.19
2022-09-30T09:02:21.343Z,15.22
2022-09-30T09:04:50.119Z,15.27
2022-09-30T09:07:29.313Z,15.31
2022-09-30T09:10:10.938Z,15.36
2022-09-30T09:13:05.027Z,15.41
2022-09-30T09:16:02.102Z,15.48
2022-09-30T09:18:41.648Z,15.57
2022-09-30T09:21:20.321Z,15.71
2022-09-30T09:23:49.626Z,15.86
2022-09-30T09:26:19.334Z,15.98
2022-09-30T09:28:59.939Z,16.06
2022-09-30T09:31:26.836Z,16.14
2022-09-30T09:33:59.772Z,16.19
2022-09-30T09:36:44.624Z,16.25
2022-09-30T09:39:39.497Z,16.38
2022-09-30T09:42:41.470Z,16.45
2022-09-30T09:45:21.987Z,16.56
2022-09-30T09:47:54.709Z,16.63
2022-09-30T09:50:28.908Z,16.72
2022-09-30T09:53:05.071Z,16.77
2022-09-30T09:55:31.534Z,16.80
2022-09-30T09:58:14.294Z,16.77
2022-09-30T10:00:41.689Z,16.80
2022-09-30T10:03:16.001Z,16.79
2022-09-30T10:05:42.647Z,16.82
2022-09-30T10:08:09.066Z,16.85
2022-09-30T10:10:45.857Z,16.85
2022-09-30T10:13:17.654Z,16.88
2022-09-30T10:15:44.713Z,16.84
2022-09-30T10:18:47.118Z,16.80
2022-09-30T10:21:22.829Z,16.73
2022-09-30T10:23:49.530Z,16.71
2022-09-30T10:26:25.183Z,16.66
2022-09-30T10:28:56.881Z,16.64
2022-09-30T10:31:28.381Z,16.67
2022-09-30T10:34:12.334Z,16.71
2022-09-30T10:36:43.320Z,16.74
2022-09-30T10:39:29.288Z,16.76
2022-09-30T10:42:06.720Z,16.77
2022-09-30T10:44:41.669Z,16.77
2022-09-30T10:47:08.674Z,16.76
2022-09-30T10:50:02.418Z,16.67
2022-09-30T10:52:31.890Z,16.61
2022-09-30T10:55:00.836Z,16.56
2022-09-30T10:57:29.788Z,16.53
2022-09-30T11:00:01.443Z,16.56
2022-09-30T11:02:48.400Z,16.63
2022-09-30T11:05:22.644Z,16.71
2022-09-30T11:08:00.197Z,16.74
2022-09-30T11:10:49.533Z,16.74
2022-09-30T11:13:42.974Z,16.80
2022-09-30T11:16:09.467Z,16.87
2022-09-30T11:18:45.161Z,16.90
2022-09-30T11:21:29.913Z,16.92
2022-09-30T11:24:25.882Z,16.94
2022-09-30T11:27:20.762Z,16.99
2022-09-30T11:29:50.330Z,17.06
2022-09-30T11:32:53.188Z,16.99
2022-09-30T11:35:26.533Z,16.96
2022-09-30T11:38:28.883Z,16.86
2022-09-30T11:40:58.303Z,16.77
2022-09-30T11:43:35.183Z,16.72
2022-09-30T11:46:13.977Z,16.68
2022-09-30T11:48:52.336Z,16.66
2022-09-30T11:51:24.432Z,16.66
2022-09-30T11:54:04.485Z,16.68
2022-09-30T11:56:49.803Z,16.76
2022-09-30T11:59:28.568Z,16.95
2022-09-30T12:02:00.335Z,17.07
2022-09-30T12:04:35.433Z,17.16
2022-09-30T12:07:18.774Z,17.18
2022-09-30T12:09:51.814Z,17.16
2022-09-30T12:12:19.675Z,17.16
2022-09-30T12:15:06.794Z,17.16
2022-09-30T12:17:45.002Z,17.18
2022-09-30T12:20:37.801Z,17.18
2022-09-30T12:23:42.048Z,17.21
2022-09-30T12:26:16.592Z,17.25
2022-09-30T12:28:48.892Z,17.27
2022-09-30T12:31:52.613Z,17.26
2022-09-30T12:34:32.757Z,17.30
2022-09-30T12:37:25.449Z,17.28
2022-09-30T12:40:10.232Z,17.31
2022-09-30T12:42:58.583Z,17.34
2022-09-30T12:45:35.335Z,17.33
2022-09-30T12:48:17.581Z,17.31
2022-09-30T12:50:52.663Z,17.31
2022-09-30T12:53:28.669Z,17.34
2022-09-30T12:56:13.637Z,17.36
2022-09-30T12:58:47.829Z,17.37
2022-09-30T13:01:18.006Z,17.37
2022-09-30T13:04:16.281Z,17.35
2022-09-30T13:06:45.532Z,17.38
2022-09-30T13:09:12.170Z,17.38
2022-09-30T13:11:57.586Z,17.38
2022-09-30T13:14:43.171Z,17.40
2022-09-30T13:17:28.244Z,17.45
2022-09-30T13:20:50.349Z,17.52
2022-09-30T13:23:46.310Z,17.60
2022-09-30T13:26:34.373Z,17.56
2022-09-30T13:29:19.444Z,17.54
2022-09-30T13:32:06.094Z,17.56
2022-09-30T13:34:56.253Z,17.56
2022-09-30T13:37:41.523Z,17.58
2022-09-30T13:40:49.816Z,17.62
2022-09-30T13:43:41.665Z,17.67
2022-09-30T13:46:43.707Z,17.75
2022-09-30T13:49:34.364Z,17.82
2022-09-30T13:52:31.763Z,17.90
2022-09-30T13:55:04.447Z,17.89
2022-09-30T13:57:48.718Z,17.88
2022-09-30T14:00:18.876Z,17.90
2022-09-30T14:03:06.373Z,17.95
2022-09-30T14:05:42.446Z,17.98
2022-09-30T14:08:47.669Z,17.92
2022-09-30T14:11:14.103Z,17.88
2022-09-30T14:14:07.831Z,17.75
2022-09-30T14:17:05.416Z,17.67
2022-09-30T14:19:32.062Z,17.50
2022-09-30T14:22:03.890Z,17.54
2022-09-30T14:24:37.608Z,17.53
2022-09-30T14:27:29.246Z,17.52
2022-09-30T14:30:37.478Z,17.55
2022-09-30T14:33:25.336Z,17.53
2022-09-30T14:35:53.964Z,17.46
2022-09-30T14:38:26.719Z,17.56
2022-09-30T14:40:56.502Z,17.58
2022-09-30T14:43:29.934Z,17.56
2022-09-30T14:45:56.983Z,17.59
2022-09-30T14:48:27.346Z,17.58
2022-09-30T14:51:01.551Z,17.62
2022-09-30T14:53:32.444Z,17.66
2022-09-30T14:56:00.835Z,17.68
2022-09-30T14:58:38.760Z,17.69
2022-09-30T15:01:17.784Z,17.58
2022-09-30T15:03:53.236Z,17.66
2022-09-30T15:06:33.061Z,17.66
2022-09-30T15:09:05.827Z,17.62
2022-09-30T15:11:38.639Z,17.58
2022-09-30T15:14:13.839Z,17.56
2022-09-30T15:17:17.194Z,17.51
2022-09-30T15:19:44.044Z,17.51
2022-09-30T15:22:13.388Z,17.50
2022-09-30T15:24:40.918Z,17.50
2022-09-30T15:27:16.506Z,17.47
2022-09-30T15:29:59.764Z,17.45
2022-09-30T15:32:35.314Z,17.41
2022-09-30T15:35:14.358Z,17.35
2022-09-30T15:37:41.726Z,17.31
2022-09-30T15:40:24.154Z,17.22
2022-09-30T15:42:55.588Z,17.16
2022-09-30T15:45:38.745Z,17.06
2022-09-30T15:48:24.034Z,16.98
2022-09-30T15:50:52.448Z,16.95
2022-09-30T15:53:48.271Z,16.87
2022-09-30T15:56:26.294Z,16.88
2022-09-30T15:59:02.587Z,16.88
2022-09-30T16:01:39.693Z,16.83
2022-09-30T16:04:08.138Z,16.82
2022-09-30T16:06:40.779Z,16.78
2022-09-30T16:09:32.188Z,16.74
2022-09-30T16:12:12.486Z,16.72
2022-09-30T16:15:08.440Z,16.70
2022-09-30T16:17:39.288Z,16.64
2022-09-30T16:20:26.468Z,16.58
2022-09-30T16:22:54.573Z,16.54
2022-09-30T16:25:21.171Z,16.40
2022-09-30T16:27:53.413Z,16.45
2022-09-30T16:30:20.849Z,16.42
2022-09-30T16:32:50.836Z,16.37
2022-09-30T16:35:22.811Z,16.30
2022-09-30T16:37:51.145Z,16.25
2022-09-30T16:40:23.899Z,16.19
2022-09-30T16:42:51.909Z,16.15
2022-09-30T16:45:18.575Z,16.10
2022-09-30T16:47:45.411Z,16.07
2022-09-30T16:50:23.934Z,16.02
2022-09-30T16:52:50.490Z,16.00
2022-09-30T16:55:17.237Z,15.98
2022-09-30T16:57:43.932Z,15.95
2022-09-30T17:00:14.127Z,15.91
2022-09-30T17:02:40.796Z,15.88
2022-09-30T17:05:12.764Z,15.85
2022-09-30T17:07:39.491Z,15.82
2022-09-30T17:10:06.736Z,15.81
2022-09-30T17:12:33.297Z,15.76
2022-09-30T17:15:00.032Z,15.74
2022-09-30T17:17:26.619Z,15.71
2022-09-30T17:19:53.137Z,15.67
2022-09-30T17:22:19.696Z,15.65
2022-09-30T17:24:46.236Z,15.63
2022-09-30T17:27:12.855Z,15.59
2022-09-30T17:29:42.042Z,15.56
2022-09-30T17:32:09.043Z,15.53
2022-09-30T17:34:35.622Z,15.52
2022-09-30T17:37:02.348Z,15.49
2022-09-30T17:39:28.954Z,15.48
2022-09-30T17:41:55.589Z,15.46
2022-09-30T17:44:22.303Z,15.44
2022-09-30T17:46:48.877Z,15.41
2022-09-30T17:49:16.971Z,15.40
2022-09-30T17:51:45.210Z,15.37
2022-09-30T17:54:11.776Z,15.35
2022-09-30T17:56:38.420Z,15.33
2022-09-30T17:59:04.981Z,15.30
2022-09-30T18:01:31.853Z,15.29
2022-09-30T18:04:00.392Z,15.27
2022-09-30T18:06:26.875Z,15.14
2022-09-30T18:08:53.400Z,15.20
2022-09-30T18:11:25.148Z,15.18
2022-09-30T18:13:56.050Z,15.17
2022-09-30T18:16:23.066Z,15.15
2022-09-30T18:18:52.855Z,15.13
2022-09-30T18:21:19.594Z,15.13
2022-09-30T18:23:46.194Z,15.10
2022-09-30T18:26:12.924Z,15.09
2022-09-30T18:28:39.531Z,15.08
2022-09-30T18:31:07.351Z,15.07
2022-09-30T18:33:34.507Z,15.06
2022-09-30T18:36:01.298Z,15.06
2022-09-30T18:38:27.975Z,15.05
2022-09-30T18:40:54.671Z,15.05
2022-09-30T18:43:24.141Z,15.04
2022-09-30T18:45:56.142Z,15.02
2022-09-30T18:48:23.873Z,15.00
2022-09-30T18:50:50.930Z,14.98
2022-09-30T18:53:22.159Z,14.97
2022-09-30T18:55:49.133Z,14.97
2022-09-30T18:58:17.036Z,14.94
2022-09-30T19:00:44.399Z,14.88
2022-09-30T19:03:11.107Z,14.84
2022-09-30T19:05:37.756Z,14.81
2022-09-30T19:08:04.336Z,14.79
2022-09-30T19:10:30.956Z,14.76
2022-09-30T19:12:57.596Z,14.76
2022-09-30T19:15:24.344Z,14.74
2022-09-30T19:17:51.039Z,14.74
2022-09-30T19:20:17.783Z,14.75
2022-09-30T19:22:44.922Z,14.73
2022-09-30T19:25:12.080Z,14.74
2022-09-30T19:27:40.692Z,14.74
2022-09-30T19:30:09.441Z,14.74
2022-09-30T19:32:36.064Z,14.74
2022-09-30T19:35:07.981Z,14.73
2022-09-30T19:37:34.513Z,14.72
2022-09-30T19:40:10.984Z,14.71
2022-09-30T19:42:45.212Z,14.71
2022-09-30T19:45:11.901Z,14.71
2022-09-30T19:47:38.494Z,14.72
2022-09-30T19:50:05.315Z,14.72
2022-09-30T19:52:33.272Z,14.72
2022-09-30T19:55:12.481Z,14.69
2022-09-30T19:57:42.595Z,14.68
2022-09-30T20:00:10.871Z,14.67
2022-09-30T20:02:38.073Z,14.65
2022-09-30T20:05:04.969Z,14.65
2022-09-30T20:07:31.539Z,14.64
2022-09-30T20:09:58.248Z,14.63
2022-09-30T20:12:24.804Z,14.63
2022-09-30T20:14:51.346Z,14.64
2022-09-30T20:17:18.081Z,14.64
2022-09-30T20:19:44.760Z,14.65
2022-09-30T20:22:12.123Z,14.65
2022-09-30T20:24:38.808Z,14.64
2022-09-30T20:27:05.380Z,14.62
2022-09-30T20:29:32.094Z,14.61
2022-09-30T20:31:58.746Z,14.61
2022-09-30T20:34:25.322Z,14.60
2022-09-30T20:36:51.949Z,14.59
2022-09-30T20:39:18.474Z,14.59
2022-09-30T20:41:45.493Z,14.59
2022-09-30T20:44:12.380Z,14.59
2022-09-30T20:46:40.159Z,14.59
2022-09-30T20:49:07.136Z,14.58
2022-09-30T20:51:34.226Z,14.58
2022-09-30T20:54:01.086Z,14.59
2022-09-30T20:56:39.326Z,14.59
2022-09-30T20:59:16.712Z,14.58
2022-09-30T21:01:43.524Z,14.58
2022-09-30T21:04:10.248Z,14.57
2022-09-30T21:06:36.821Z,14.56
2022-09-30T21:09:03.439Z,14.55
2022-09-30T21:11:30.442Z,14.55
2022-09-30T21:13:57.498Z,14.52
2022-09-30T21:16:25.249Z,14.51
2022-09-30T21:18:53.105Z,14.51
2022-09-30T21:21:21.126Z,14.50
2022-09-30T21:23:47.685Z,14.42
2022-09-30T21:26:16.859Z,14.51
2022-09-30T21:28:48.716Z,14.52
2022-09-30T21:31:20.705Z,14.50
2022-09-30T21:33:51.841Z,14.50
2022-09-30T21:36:18.539Z,14.49
2022-09-30T21:38:45.084Z,14.48
2022-09-30T21:41:11.973Z,14.47
2022-09-30T21:43:38.540Z,14.47
2022-09-30T21:46:07.918Z,14.44
2022-09-30T21:48:35.767Z,14.42
2022-09-30T21:51:03.788Z,14.41
2022-09-30T21:53:30.831Z,14.39
2022-09-30T21:55:59.761Z,14.38
2022-09-30T21:58:28.253Z,14.37
2022-09-30T22:01:00.966Z,14.36
2022-09-30T22:03:32.791Z,14.33
2022-09-30T22:05:59.332Z,14.31
2022-09-30T22:08:26.026Z,14.27
2022-09-30T22:10:52.660Z,14.24
2022-09-30T22:13:19.609Z,14.21
2022-09-30T22:15:47.065Z,14.17
2022-09-30T22:18:20.600Z,14.12
2022-09-30T22:20:47.982Z,14.10
2022-09-30T22:23:15.129Z,14.07
2022-09-30T22:25:41.700Z,14.06
2022-09-30T22:28:08.413Z,14.02
2022-09-30T22:30:35.294Z,14.00
2022-09-30T22:33:02.096Z,13.96
2022-09-30T22:35:28.709Z,13.91
2022-09-30T22:37:55.332Z,13.88
2022-09-30T22:40:22.080Z,13.86
2022-09-30T22:42:48.585Z,13.83
2022-09-30T22:45:15.256Z,13.82
2022-09-30T22:47:42.053Z,13.80
2022-09-30T22:50:09.002Z,13.78
2022-09-30T22:52:35.528Z,13.76
2022-09-30T22:55:02.070Z,13.77
2022-09-30T22:57:28.750Z,13.77
2022-09-30T22:59:55.334Z,13.77
2022-09-30T23:02:22.066Z,13.77
2022-09-30T23:04:48.631Z,13.78
2022-09-30T23:07:15.243Z,13.79
2022-09-30T23:09:41.893Z,13.81
2022-09-30T23:12:08.582Z,13.81
2022-09-30T23:14:35.470Z,13.83
2022-09-30T23:17:02.144Z,13.84
2022-09-30T23:19:28.766Z,13.84
2022-09-30T23:21:55.581Z,13.83
2022-09-30T23:24:22.357Z,13.85
2022-09-30T23:26:48.960Z,13.86
2022-09-30T23:29:15.993Z,13.86
2022-09-30T23:31:42.915Z,13.87
2022-09-30T23:34:09.958Z,13.88
2022-09-30T23:36:37.229Z,13.90
2022-09-30T23:39:11.707Z,13.89
2022-09-30T23:41:38.729Z,13.92
2022-09-30T23:44:06.153Z,13.91
2022-09-30T23:46:35.115Z,13.92
2022-09-30T23:49:01.837Z,13.92
2022-09-30T23:51:28.638Z,13.93
2022-09-30T23:53:55.175Z,13.91
2022-09-30T23:56:21.808Z,13.91
2022-09-30T23:58:48.558Z,13.90
